Time;durP1;ratioP1;P1;durP2;ratioP2;P2;SDS_P1;SDS_P2;PMS_P1;PMS_P2;Temp;Humidity;BMP_temperature;BMP_pressure;BME280_temperature;BME280_humidity;BME280_pressure;Samples;Min_cycle;Max_cycle;Signal;HPM_P1;HPM_P2
2022/08/18 00:00:27;;;;;;;;;;;17.40;99.90;;;;;;5093024;28;19925;-67
2022/08/18 00:02:56;;;;;;;;;;;17.40;99.90;;;;;;5092917;28;19924;-67
2022/08/18 00:05:24;;;;;;;;;;;17.40;99.90;;;;;;5092885;28;19928;-67
2022/08/18 00:07:51;;;;;;;;;;;17.30;99.90;;;;;;5092741;28;19947;-67
2022/08/18 00:10:18;;;;;;;;;;;17.20;99.90;;;;;;5092943;28;19931;-67
2022/08/18 00:12:45;;;;;;;;;;;17.20;99.90;;;;;;5093148;28;20344;-67
2022/08/18 00:15:13;;;;;;;;;;;17.20;99.90;;;;;;5092641;28;19949;-67
2022/08/18 00:17:39;;;;;;;;;;;17.10;99.90;;;;;;5092266;28;19924;-67
2022/08/18 00:20:10;;;;;;;;;;;17.10;99.90;;;;;;5092913;28;19931;-68
2022/08/18 00:22:38;;;;;;;;;;;17.10;99.90;;;;;;5093057;28;19924;-67
2022/08/18 00:25:06;;;;;;;;;;;17.10;99.90;;;;;;5092903;28;19947;-67
2022/08/18 00:27:33;;;;;;;;;;;17.10;99.90;;;;;;5092536;28;20299;-67
2022/08/18 00:30:00;;;;;;;;;;;17.10;99.90;;;;;;5092291;28;20019;-68
2022/08/18 00:32:29;;;;;;;;;;;17.10;99.90;;;;;;5092234;28;19931;-68
2022/08/18 00:34:56;;;;;;;;;;;17.10;99.90;;;;;;5092817;28;19928;-68
2022/08/18 00:37:24;;;;;;;;;;;17.10;99.90;;;;;;5092668;28;19928;-68
2022/08/18 00:39:52;;;;;;;;;;;17.10;99.90;;;;;;5091825;28;19981;-69
2022/08/18 00:42:20;;;;;;;;;;;17.10;99.90;;;;;;5092108;28;19959;-68
2022/08/18 00:44:48;;;;;;;;;;;17.20;99.90;;;;;;5092445;28;20341;-68
2022/08/18 00:47:14;;;;;;;;;;;17.10;99.90;;;;;;5092298;28;19931;-68
2022/08/18 00:49:42;;;;;;;;;;;17.10;99.90;;;;;;5091598;28;20372;-68
2022/08/18 00:52:09;;;;;;;;;;;17.10;99.90;;;;;;5092246;28;19932;-68
2022/08/18 00:54:40;;;;;;;;;;;17.10;99.90;;;;;;5092214;28;20027;-68
2022/08/18 00:57:07;;;;;;;;;;;17.10;99.90;;;;;;5091861;28;19924;-68
2022/08/18 00:59:37;;;;;;;;;;;17.10;99.90;;;;;;5091329;28;20289;-68
2022/08/18 01:02:06;;;;;;;;;;;17.20;99.90;;;;;;5091885;28;19928;-68
2022/08/18 01:04:34;;;;;;;;;;;17.20;99.90;;;;;;5091915;28;19924;-68
2022/08/18 01:07:04;;;;;;;;;;;17.20;99.90;;;;;;5091122;28;20403;-68
2022/08/18 01:09:31;;;;;;;;;;;17.20;99.90;;;;;;5091593;28;19924;-67
2022/08/18 01:11:59;;;;;;;;;;;17.20;99.90;;;;;;5092106;28;19924;-68
2022/08/18 01:14:26;;;;;;;;;;;17.20;99.90;;;;;;5091604;28;20461;-68
2022/08/18 01:22:24;;;;;;;;;;;17.10;99.90;;;;;;5091821;28;19924;-68
2022/08/18 01:27:40;;;;;;;;;;;17.20;99.90;;;;;;5091328;28;19924;-67
2022/08/18 01:30:09;;;;;;;;;;;17.30;99.90;;;;;;5091227;28;19924;-68
2022/08/18 01:32:37;;;;;;;;;;;17.30;99.90;;;;;;5091270;28;20018;-68
2022/08/18 01:35:07;;;;;;;;;;;17.20;99.90;;;;;;5091494;28;19959;-67
2022/08/18 01:37:34;;;;;;;;;;;17.20;99.90;;;;;;5091349;28;19967;-67
2022/08/18 01:40:05;;;;;;;;;;;17.10;99.90;;;;;;5090962;28;19924;-67
2022/08/18 01:42:32;;;;;;;;;;;17.00;99.90;;;;;;5091506;28;19963;-67
2022/08/18 01:44:59;;;;;;;;;;;17.00;99.90;;;;;;5091523;28;20372;-67
2022/08/18 01:47:27;;;;;;;;;;;16.90;99.90;;;;;;5091557;28;19928;-67
2022/08/18 01:49:54;;;;;;;;;;;16.90;99.90;;;;;;5090740;28;19928;-67
2022/08/18 01:52:21;;;;;;;;;;;16.90;99.90;;;;;;5091091;28;19925;-67
2022/08/18 01:54:49;;;;;;;;;;;16.90;99.90;;;;;;5091409;28;19928;-67
2022/08/18 01:57:17;;;;;;;;;;;16.80;99.90;;;;;;5091437;28;20299;-67
2022/08/18 01:59:44;;;;;;;;;;;16.80;99.90;;;;;;5090354;28;19935;-68
2022/08/18 02:02:14;;;;;;;;;;;16.70;99.90;;;;;;5091224;28;20337;-67
2022/08/18 02:04:42;;;;;;;;;;;16.70;99.90;;;;;;5091414;28;19974;-67
2022/08/18 02:07:10;;;;;;;;;;;16.60;99.90;;;;;;5090956;28;19973;-67
2022/08/18 02:09:38;;;;;;;;;;;16.60;99.90;;;;;;5090847;28;19971;-68
2022/08/18 02:12:06;;;;;;;;;;;16.60;99.90;;;;;;5090887;28;20380;-67
2022/08/18 02:14:34;;;;;;;;;;;16.60;99.90;;;;;;5091181;28;20015;-68
2022/08/18 02:17:02;;;;;;;;;;;16.60;99.90;;;;;;5090965;28;20000;-68
2022/08/18 02:19:29;;;;;;;;;;;16.60;99.90;;;;;;5090809;28;19924;-68
2022/08/18 02:21:55;;;;;;;;;;;16.50;99.90;;;;;;5090879;28;19949;-68
2022/08/18 02:24:22;;;;;;;;;;;16.50;99.90;;;;;;5091020;28;19977;-68
2022/08/18 02:26:49;;;;;;;;;;;16.60;99.90;;;;;;5090688;28;20268;-68
2022/08/18 02:29:16;;;;;;;;;;;16.60;99.90;;;;;;5090568;28;19924;-68
2022/08/18 02:31:44;;;;;;;;;;;16.60;99.90;;;;;;5091074;28;19924;-68
2022/08/18 02:34:11;;;;;;;;;;;16.60;99.90;;;;;;5090129;28;20461;-67
2022/08/18 02:36:38;;;;;;;;;;;16.70;99.90;;;;;;5090909;28;19924;-68
2022/08/18 02:39:05;;;;;;;;;;;16.70;99.90;;;;;;5090197;28;19935;-68
2022/08/18 02:41:31;;;;;;;;;;;16.70;99.90;;;;;;5090675;28;20383;-68
2022/08/18 02:43:58;;;;;;;;;;;16.70;99.90;;;;;;5094816;28;19927;-69
2022/08/18 02:46:26;;;;;;;;;;;16.70;99.90;;;;;;5094412;28;19990;-68
2022/08/18 02:48:55;;;;;;;;;;;16.80;99.90;;;;;;5094323;28;20369;-68
2022/08/18 02:51:22;;;;;;;;;;;16.70;99.90;;;;;;5094460;28;19924;-68
2022/08/18 02:53:48;;;;;;;;;;;16.80;99.90;;;;;;5094357;28;19924;-68
2022/08/18 02:56:21;;;;;;;;;;;16.70;99.90;;;;;;5094400;28;20399;-68
2022/08/18 02:58:48;;;;;;;;;;;16.70;99.90;;;;;;5094265;28;19927;-68
2022/08/18 03:01:15;;;;;;;;;;;16.60;99.90;;;;;;5094588;28;20379;-67
2022/08/18 03:03:42;;;;;;;;;;;16.60;99.90;;;;;;5094386;28;20023;-68
2022/08/18 03:06:11;;;;;;;;;;;16.60;99.90;;;;;;5094229;28;19939;-69
2022/08/18 03:08:37;;;;;;;;;;;16.50;99.90;;;;;;5093475;28;19924;-69
2022/08/18 03:11:04;;;;;;;;;;;16.50;99.90;;;;;;5093852;28;19924;-68
2022/08/18 03:13:31;;;;;;;;;;;16.50;99.90;;;;;;5094117;28;20293;-67
2022/08/18 03:15:58;;;;;;;;;;;16.40;99.90;;;;;;5094068;28;19924;-68
2022/08/18 03:18:25;;;;;;;;;;;16.40;99.90;;;;;;5080580;28;19935;-68
2022/08/18 03:20:52;;;;;;;;;;;16.30;99.90;;;;;;5073525;28;20000;-68
2022/08/18 03:23:20;;;;;;;;;;;16.30;99.90;;;;;;5073866;28;19924;-68
2022/08/18 03:25:48;;;;;;;;;;;16.20;99.90;;;;;;5073457;28;19967;-68
2022/08/18 03:28:16;;;;;;;;;;;16.20;99.90;;;;;;5073554;28;19932;-68
2022/08/18 03:30:43;;;;;;;;;;;16.20;99.90;;;;;;5073474;28;19928;-68
2022/08/18 03:33:10;;;;;;;;;;;16.20;99.90;;;;;;5073266;28;20339;-68
2022/08/18 03:35:37;;;;;;;;;;;16.20;99.90;;;;;;5073123;28;20335;-68
2022/08/18 03:38:04;;;;;;;;;;;16.10;99.90;;;;;;5073092;28;20338;-68
2022/08/18 03:40:32;;;;;;;;;;;16.10;99.90;;;;;;5073039;28;19924;-68
2022/08/18 03:43:05;;;;;;;;;;;16.10;99.90;;;;;;5072671;28;20464;-67
2022/08/18 03:45:32;;;;;;;;;;;16.20;99.90;;;;;;5073380;28;19931;-69
2022/08/18 03:47:59;;;;;;;;;;;16.30;99.90;;;;;;5073196;28;19924;-67
2022/08/18 03:50:26;;;;;;;;;;;16.50;99.90;;;;;;5073048;28;19963;-68
2022/08/18 03:52:54;;;;;;;;;;;16.60;99.90;;;;;;5072735;28;19924;-67
2022/08/18 03:55:21;;;;;;;;;;;16.70;99.90;;;;;;5072845;28;19925;-68
2022/08/18 03:57:51;;;;;;;;;;;16.70;99.90;;;;;;5093297;28;19988;-68
2022/08/18 04:00:18;;;;;;;;;;;16.80;99.90;;;;;;5093185;28;19924;-68
2022/08/18 04:02:45;;;;;;;;;;;16.90;99.90;;;;;;5093282;28;19927;-68
2022/08/18 04:05:12;;;;;;;;;;;16.90;99.90;;;;;;5092958;28;19928;-68
2022/08/18 04:07:39;;;;;;;;;;;16.90;99.90;;;;;;5093040;28;19931;-68
2022/08/18 04:10:06;;;;;;;;;;;17.00;99.90;;;;;;5092679;28;19924;-68
2022/08/18 04:12:33;;;;;;;;;;;17.00;99.90;;;;;;5093155;28;19924;-68
2022/08/18 04:15:02;;;;;;;;;;;17.10;99.90;;;;;;5092959;28;19924;-67
2022/08/18 04:17:29;;;;;;;;;;;17.10;99.90;;;;;;5092968;28;20455;-69
2022/08/18 04:19:56;;;;;;;;;;;17.10;99.90;;;;;;5092401;28;19928;-68
2022/08/18 04:22:23;;;;;;;;;;;17.20;99.90;;;;;;5092677;28;19985;-68
2022/08/18 04:24:50;;;;;;;;;;;17.20;99.90;;;;;;5092909;28;19924;-69
2022/08/18 04:27:18;;;;;;;;;;;17.20;99.90;;;;;;5092542;28;20045;-69
2022/08/18 04:29:45;;;;;;;;;;;17.30;99.90;;;;;;5092025;28;19958;-68
2022/08/18 04:32:13;;;;;;;;;;;17.30;99.90;;;;;;5092760;28;20273;-69
2022/08/18 04:34:40;;;;;;;;;;;17.30;99.90;;;;;;5091339;28;19924;-69
2022/08/18 04:37:08;;;;;;;;;;;17.40;99.90;;;;;;5092450;28;20329;-70
2022/08/18 04:39:35;;;;;;;;;;;17.40;99.90;;;;;;5092076;28;20030;-70
2022/08/18 04:42:03;;;;;;;;;;;17.40;99.90;;;;;;5092270;28;19928;-70
2022/08/18 04:44:30;;;;;;;;;;;17.40;99.90;;;;;;5092610;28;19963;-70
2022/08/18 04:46:57;;;;;;;;;;;17.40;99.90;;;;;;5092088;28;19924;-70
2022/08/18 04:49:25;;;;;;;;;;;17.40;99.90;;;;;;5091962;28;19928;-69
2022/08/18 04:54:38;;;;;;;;;;;17.50;99.90;;;;;;5092285;28;19920;-70
2022/08/18 04:57:09;;;;;;;;;;;17.40;99.90;;;;;;5092148;28;20342;-70
2022/08/18 04:59:36;;;;;;;;;;;17.40;99.90;;;;;;5091871;28;19957;-70
2022/08/18 05:02:07;;;;;;;;;;;17.40;99.90;;;;;;5084902;28;20172;-70
2022/08/18 05:04:36;;;;;;;;;;;17.40;99.90;;;;;;5087427;28;19924;-70
2022/08/18 05:07:04;;;;;;;;;;;17.40;99.90;;;;;;5088587;28;19925;-70
2022/08/18 05:09:30;;;;;;;;;;;17.50;99.90;;;;;;5091157;28;19924;-69
2022/08/18 05:11:57;;;;;;;;;;;17.50;99.90;;;;;;5091251;28;19924;-69
2022/08/18 05:14:24;;;;;;;;;;;17.60;99.90;;;;;;5081648;28;19970;-70
2022/08/18 05:16:51;;;;;;;;;;;17.60;99.90;;;;;;5070119;28;19930;-69
2022/08/18 05:19:21;;;;;;;;;;;17.60;99.90;;;;;;5072683;28;19924;-69
2022/08/18 05:21:49;;;;;;;;;;;17.60;99.90;;;;;;5090572;28;19947;-69
2022/08/18 05:24:16;;;;;;;;;;;17.50;99.90;;;;;;5090313;28;19928;-69
2022/08/18 05:26:44;;;;;;;;;;;17.50;99.90;;;;;;5090683;28;19956;-70
2022/08/18 05:29:11;;;;;;;;;;;17.60;99.90;;;;;;5090019;28;19924;-67
2022/08/18 05:31:37;;;;;;;;;;;17.50;99.90;;;;;;5090793;28;20400;-68
2022/08/18 05:34:04;;;;;;;;;;;17.50;99.90;;;;;;5090331;28;19924;-68
2022/08/18 05:36:45;;;;;;;;;;;17.50;99.90;;;;;;5090441;28;19928;-67
2022/08/18 05:39:18;;;;;;;;;;;17.50;99.90;;;;;;5089916;28;19924;-68
2022/08/18 05:41:46;;;;;;;;;;;17.50;99.90;;;;;;5090585;28;20056;-68
2022/08/18 05:44:14;;;;;;;;;;;17.50;99.90;;;;;;5089783;28;19924;-68
2022/08/18 05:46:44;;;;;;;;;;;17.60;99.90;;;;;;5090477;28;19924;-68
2022/08/18 05:49:11;;;;;;;;;;;17.50;99.90;;;;;;5089798;28;20037;-68
2022/08/18 05:51:39;;;;;;;;;;;17.60;99.90;;;;;;5090211;28;19958;-69
2022/08/18 05:56:54;;;;;;;;;;;17.60;99.90;;;;;;5090469;28;19920;-68
2022/08/18 05:59:23;;;;;;;;;;;17.70;99.90;;;;;;5089857;28;19950;-69
2022/08/18 06:01:53;;;;;;;;;;;17.70;99.90;;;;;;5089994;28;19924;-68
2022/08/18 06:04:23;;;;;;;;;;;17.60;99.90;;;;;;5090165;28;19928;-69
2022/08/18 06:06:51;;;;;;;;;;;17.70;99.90;;;;;;5089799;28;20403;-69
2022/08/18 06:09:21;;;;;;;;;;;17.60;99.90;;;;;;5089304;28;20383;-69
2022/08/18 06:11:48;;;;;;;;;;;17.60;99.90;;;;;;5090088;28;19928;-69
2022/08/18 06:14:17;;;;;;;;;;;17.50;99.90;;;;;;5089986;28;20353;-69
2022/08/18 06:16:53;;;;;;;;;;;17.60;99.90;;;;;;5092132;28;19939;-69
2022/08/18 06:19:32;;;;;;;;;;;17.60;99.90;;;;;;5093699;28;19928;-69
2022/08/18 06:22:03;;;;;;;;;;;17.60;99.90;;;;;;5094121;28;19928;-68
2022/08/18 06:24:35;;;;;;;;;;;17.70;99.90;;;;;;5094127;28;20022;-69
2022/08/18 06:27:10;;;;;;;;;;;17.70;99.90;;;;;;5093872;28;20441;-69
2022/08/18 06:29:46;;;;;;;;;;;17.70;99.90;;;;;;5093628;28;19983;-69
2022/08/18 06:32:18;;;;;;;;;;;17.70;99.90;;;;;;5093632;28;19977;-69
2022/08/18 06:34:52;;;;;;;;;;;17.60;99.90;;;;;;5093935;28;19924;-69
2022/08/18 06:37:23;;;;;;;;;;;17.70;99.90;;;;;;5093785;28;19924;-69
2022/08/18 06:39:50;;;;;;;;;;;17.70;99.90;;;;;;5092981;28;20500;-69
2022/08/18 06:42:20;;;;;;;;;;;17.70;99.90;;;;;;5092943;28;19924;-69
2022/08/18 06:44:50;;;;;;;;;;;17.70;99.90;;;;;;5093640;28;19949;-69
2022/08/18 06:47:19;;;;;;;;;;;17.80;99.90;;;;;;5093394;28;19928;-69
2022/08/18 06:49:49;;;;;;;;;;;17.70;99.90;;;;;;5092835;28;20449;-69
2022/08/18 06:52:20;;;;;;;;;;;17.80;99.90;;;;;;5093541;28;20422;-69
2022/08/18 06:54:47;;;;;;;;;;;17.80;99.90;;;;;;5093340;28;19928;-69
2022/08/18 06:57:22;;;;;;;;;;;17.90;99.90;;;;;;5093410;28;19924;-69
2022/08/18 06:59:56;;;;;;;;;;;17.90;99.90;;;;;;5092826;28;19924;-69
2022/08/18 07:02:25;;;;;;;;;;;17.80;99.90;;;;;;5093085;28;19924;-69
2022/08/18 07:04:59;;;;;;;;;;;17.90;99.90;;;;;;5092893;28;19925;-69
2022/08/18 07:07:30;;;;;;;;;;;17.90;99.90;;;;;;5093553;28;19930;-69
2022/08/18 07:09:57;;;;;;;;;;;18.00;99.90;;;;;;5092932;28;19978;-69
2022/08/18 07:12:25;;;;;;;;;;;18.00;99.90;;;;;;5093138;28;19924;-69
2022/08/18 07:14:53;;;;;;;;;;;18.10;99.90;;;;;;5092874;28;20405;-69
2022/08/18 07:17:23;;;;;;;;;;;18.10;99.90;;;;;;5093002;28;19997;-69
2022/08/18 07:20:06;;;;;;;;;;;18.10;99.90;;;;;;5092427;28;20387;-69
2022/08/18 07:22:32;;;;;;;;;;;18.20;99.90;;;;;;5092849;28;19924;-69
2022/08/18 07:25:01;;;;;;;;;;;18.20;99.90;;;;;;5092845;28;20464;-69
2022/08/18 07:27:41;;;;;;;;;;;18.20;99.90;;;;;;5091899;28;19928;-69
2022/08/18 07:30:10;;;;;;;;;;;18.30;99.90;;;;;;5092451;28;19924;-69
2022/08/18 07:32:43;;;;;;;;;;;18.20;99.90;;;;;;5092923;28;20399;-69
2022/08/18 07:35:11;;;;;;;;;;;18.30;99.90;;;;;;5092912;28;19950;-69
2022/08/18 07:37:40;;;;;;;;;;;18.20;99.90;;;;;;5092344;28;20443;-70
2022/08/18 07:40:14;;;;;;;;;;;18.30;99.90;;;;;;5092689;28;20023;-69
2022/08/18 07:42:43;;;;;;;;;;;18.30;99.90;;;;;;5091986;28;19924;-69
2022/08/18 07:45:15;;;;;;;;;;;18.30;99.90;;;;;;5092597;28;19924;-69
2022/08/18 07:47:48;;;;;;;;;;;18.30;99.90;;;;;;5092388;28;20395;-69
2022/08/18 07:50:15;;;;;;;;;;;18.40;99.90;;;;;;5092236;28;19924;-69
2022/08/18 07:52:45;;;;;;;;;;;18.50;99.90;;;;;;5092069;28;20332;-69
2022/08/18 07:55:18;;;;;;;;;;;18.40;99.90;;;;;;5092444;28;19928;-69
2022/08/18 07:57:47;;;;;;;;;;;18.50;99.90;;;;;;5092064;28;20338;-69
2022/08/18 08:00:18;;;;;;;;;;;18.40;99.90;;;;;;5092028;28;19977;-68
2022/08/18 08:02:51;;;;;;;;;;;18.40;99.90;;;;;;5091892;28;19924;-68
2022/08/18 08:05:22;;;;;;;;;;;18.50;99.90;;;;;;5092181;28;19932;-68
2022/08/18 08:07:51;;;;;;;;;;;18.50;99.90;;;;;;5092147;28;19932;-69
2022/08/18 08:10:34;;;;;;;;;;;18.60;99.90;;;;;;5091634;28;20479;-69
2022/08/18 08:13:11;;;;;;;;;;;18.60;99.90;;;;;;5091834;28;19931;-69
2022/08/18 08:15:43;;;;;;;;;;;18.60;99.90;;;;;;5091871;28;19978;-69
2022/08/18 08:18:13;;;;;;;;;;;18.70;99.90;;;;;;5091407;28;19927;-69
2022/08/18 08:20:45;;;;;;;;;;;18.90;99.90;;;;;;5091596;28;19970;-69
2022/08/18 08:23:16;;;;;;;;;;;19.00;99.90;;;;;;5091494;28;19924;-69
2022/08/18 08:25:48;;;;;;;;;;;19.00;99.90;;;;;;5091927;28;20392;-69
2022/08/18 08:28:21;;;;;;;;;;;19.10;99.90;;;;;;5091394;28;19928;-69
2022/08/18 08:30:53;;;;;;;;;;;19.30;99.90;;;;;;5091470;28;19935;-69
2022/08/18 08:33:24;;;;;;;;;;;19.40;99.90;;;;;;5091493;28;20023;-69
2022/08/18 08:35:53;;;;;;;;;;;19.50;99.90;;;;;;5091432;28;19969;-68
2022/08/18 08:38:23;;;;;;;;;;;19.70;99.90;;;;;;5091180;28;19924;-69
2022/08/18 08:40:52;;;;;;;;;;;19.50;99.90;;;;;;5091123;28;20018;-69
2022/08/18 08:43:21;;;;;;;;;;;19.60;99.90;;;;;;5091370;28;19924;-69
2022/08/18 08:45:50;;;;;;;;;;;19.50;99.90;;;;;;5091265;28;19928;-69
2022/08/18 08:48:19;;;;;;;;;;;19.50;99.90;;;;;;5090895;28;19924;-69
2022/08/18 08:50:49;;;;;;;;;;;19.60;99.90;;;;;;5091267;28;19924;-69
2022/08/18 08:53:20;;;;;;;;;;;19.60;99.90;;;;;;5091501;28;20398;-69
2022/08/18 08:55:51;;;;;;;;;;;19.80;99.90;;;;;;5091278;28;19924;-69
2022/08/18 08:58:20;;;;;;;;;;;19.90;99.90;;;;;;5091135;28;19977;-69
2022/08/18 09:00:48;;;;;;;;;;;20.10;99.90;;;;;;5090986;28;19928;-68
2022/08/18 09:03:22;;;;;;;;;;;20.20;99.90;;;;;;5090915;28;20344;-69
2022/08/18 09:05:52;;;;;;;;;;;20.20;99.90;;;;;;5091080;28;20315;-69
2022/08/18 09:08:27;;;;;;;;;;;20.20;99.90;;;;;;5090720;28;19985;-69
2022/08/18 09:11:06;;;;;;;;;;;20.20;99.90;;;;;;5090755;28;19931;-69
2022/08/18 09:13:41;;;;;;;;;;;20.20;99.90;;;;;;5090666;28;19928;-69
2022/08/18 09:16:18;;;;;;;;;;;20.30;99.90;;;;;;5090590;28;19928;-68
2022/08/18 09:18:51;;;;;;;;;;;20.40;99.90;;;;;;5090578;28;19963;-69
2022/08/18 09:21:24;;;;;;;;;;;20.40;99.90;;;;;;5090817;28;19931;-69
2022/08/18 09:23:53;;;;;;;;;;;20.40;99.90;;;;;;5090452;28;19924;-68
2022/08/18 09:26:25;;;;;;;;;;;20.30;99.90;;;;;;5090682;28;19928;-70
2022/08/18 09:28:56;;;;;;;;;;;20.30;99.90;;;;;;5090237;28;19924;-68
2022/08/18 09:31:23;;;;;;;;;;;20.30;99.90;;;;;;5090497;28;19924;-68
2022/08/18 09:33:57;;;;;;;;;;;20.40;99.90;;;;;;5090255;28;19927;-69
2022/08/18 09:36:33;;;;;;;;;;;20.50;99.90;;;;;;5090208;28;20424;-69
2022/08/18 09:41:48;;;;;;;;;;;20.80;99.90;;;;;;5090525;28;20383;-68
2022/08/18 09:44:35;;;;;;;;;;;21.00;99.90;;;;;;5089852;28;19924;-69
2022/08/18 09:47:02;;;;;;;;;;;21.10;99.90;;;;;;5089950;28;19999;-69
2022/08/18 09:49:40;;;;;;;;;;;21.30;99.90;;;;;;5089829;28;20361;-70
2022/08/18 09:52:22;;;;;;;;;;;21.50;99.90;;;;;;5089840;28;20359;-69
2022/08/18 09:54:52;;;;;;;;;;;21.60;99.90;;;;;;5088862;28;19932;-69
2022/08/18 09:57:21;;;;;;;;;;;21.60;99.90;;;;;;5090357;28;19924;-69
2022/08/18 10:00:18;;;;;;;;;;;21.60;99.90;;;;;;5089674;28;19965;-70
2022/08/18 10:03:10;;;;;;;;;;;21.80;99.90;;;;;;5089893;28;20380;-70
2022/08/18 10:05:37;;;;;;;;;;;22.30;99.90;;;;;;5089970;28;20018;-70
2022/08/18 10:08:23;;;;;;;;;;;22.60;99.90;;;;;;5089496;28;19931;-69
2022/08/18 10:10:53;;;;;;;;;;;22.80;99.90;;;;;;5089615;28;20453;-69
2022/08/18 10:13:24;;;;;;;;;;;22.90;99.90;;;;;;5089791;28;19943;-70
2022/08/18 10:16:01;;;;;;;;;;;23.10;99.90;;;;;;5090050;28;19970;-70
2022/08/18 10:18:43;;;;;;;;;;;23.30;99.90;;;;;;5089614;28;20102;-70
2022/08/18 10:21:13;;;;;;;;;;;23.40;99.90;;;;;;5086409;28;19924;-70
2022/08/18 10:23:45;;;;;;;;;;;23.80;99.90;;;;;;5089697;28;20418;-69
2022/08/18 10:26:27;;;;;;;;;;;24.00;99.90;;;;;;5089850;28;19925;-71
2022/08/18 10:28:56;;;;;;;;;;;24.20;99.90;;;;;;5076438;28;20343;-70
2022/08/18 10:31:23;;;;;;;;;;;24.40;99.90;;;;;;5089670;28;19952;-71
2022/08/18 10:33:58;;;;;;;;;;;24.60;99.90;;;;;;5089650;28;19932;-70
2022/08/18 10:36:34;;;;;;;;;;;24.60;99.90;;;;;;5089647;28;19985;-70
2022/08/18 10:39:04;;;;;;;;;;;24.10;99.90;;;;;;5089270;28;19931;-70
2022/08/18 10:41:31;;;;;;;;;;;24.30;99.90;;;;;;5089656;28;19924;-69
2022/08/18 10:44:01;;;;;;;;;;;24.20;99.90;;;;;;5089270;28;19924;-70
2022/08/18 10:46:35;;;;;;;;;;;24.20;99.90;;;;;;5089481;28;19928;-70
2022/08/18 10:49:15;;;;;;;;;;;24.10;99.90;;;;;;5089205;28;19931;-70
2022/08/18 10:52:01;;;;;;;;;;;24.00;99.90;;;;;;5089554;28;19924;-70
2022/08/18 10:54:33;;;;;;;;;;;24.20;99.90;;;;;;5089496;28;19924;-70
2022/08/18 10:57:06;;;;;;;;;;;24.30;99.90;;;;;;5089504;28;19978;-71
2022/08/18 10:59:38;;;;;;;;;;;24.70;99.90;;;;;;5089003;28;20277;-71
2022/08/18 11:02:12;;;;;;;;;;;25.10;99.90;;;;;;5089556;28;19924;-70
2022/08/18 11:04:43;;;;;;;;;;;25.60;99.90;;;;;;5092759;28;20395;-71
2022/08/18 11:07:10;;;;;;;;;;;25.60;99.90;;;;;;5101995;22;19924;-70
2022/08/18 11:09:38;;;;;;;;;;;25.20;99.90;;;;;;5073242;28;19966;-69
2022/08/18 11:12:05;;;;;;;;;;;24.90;99.90;;;;;;5072565;28;19924;-71
2022/08/18 11:14:51;;;;;;;;;;;25.00;99.90;;;;;;5072871;28;20410;-70
2022/08/18 11:17:22;;;;;;;;;;;24.90;99.90;;;;;;5073048;28;20371;-70
2022/08/18 11:19:50;;;;;;;;;;;24.40;99.90;;;;;;5072518;28;19975;-69
2022/08/18 11:22:21;;;;;;;;;;;24.60;99.90;;;;;;5072596;28;20391;-70
2022/08/18 11:24:48;;;;;;;;;;;24.90;99.90;;;;;;5072517;28;19929;-70
2022/08/18 11:27:18;;;;;;;;;;;24.90;99.90;;;;;;5072761;28;19931;-70
2022/08/18 11:29:45;;;;;;;;;;;25.00;99.90;;;;;;5072361;28;19935;-70
2022/08/18 11:32:16;;;;;;;;;;;25.30;99.90;;;;;;5072517;28;19952;-70
2022/08/18 11:34:45;;;;;;;;;;;25.70;99.90;;;;;;5072467;28;19928;-70
2022/08/18 11:37:21;;;;;;;;;;;26.00;99.90;;;;;;5072949;28;19960;-70
2022/08/18 11:39:49;;;;;;;;;;;26.10;99.90;;;;;;5071968;28;19925;-70
2022/08/18 11:42:17;;;;;;;;;;;26.40;99.90;;;;;;5072157;28;19935;-70
2022/08/18 11:44:44;;;;;;;;;;;26.10;99.90;;;;;;5072189;28;19924;-71
2022/08/18 11:47:14;;;;;;;;;;;26.20;99.90;;;;;;5072329;28;19974;-71
2022/08/18 11:49:51;;;;;;;;;;;26.00;99.90;;;;;;5071735;28;20277;-71
2022/08/18 11:52:20;;;;;;;;;;;26.00;99.90;;;;;;5072146;28;19997;-71
2022/08/18 11:54:49;;;;;;;;;;;25.90;99.90;;;;;;5071807;28;20318;-71
2022/08/18 11:57:38;;;;;;;;;;;26.00;99.90;;;;;;5071906;28;19924;-70
2022/08/18 12:00:20;;;;;;;;;;;26.10;99.90;;;;;;5071632;28;20392;-69
2022/08/18 12:02:47;;;;;;;;;;;26.30;99.90;;;;;;5070941;28;20023;-69
2022/08/18 12:05:15;;;;;;;;;;;26.20;99.90;;;;;;5071688;28;19936;-69
2022/08/18 12:07:42;;;;;;;;;;;26.10;99.90;;;;;;5071526;28;20449;-69
2022/08/18 12:10:13;;;;;;;;;;;25.70;99.90;;;;;;5071745;28;19924;-68
2022/08/18 12:12:44;;;;;;;;;;;25.40;99.90;;;;;;5051761;28;19956;-69
2022/08/18 12:15:25;;;;;;;;;;;25.40;99.90;;;;;;5051182;28;20304;-69
2022/08/18 12:17:52;;;;;;;;;;;25.30;99.90;;;;;;5051504;28;19956;-69
2022/08/18 12:20:21;;;;;;;;;;;25.40;99.90;;;;;;5051288;28;19924;-70
2022/08/18 12:22:49;;;;;;;;;;;25.40;99.90;;;;;;5051264;28;20350;-69
2022/08/18 12:25:16;;;;;;;;;;;25.40;99.90;;;;;;5051609;28;19964;-69
2022/08/18 12:27:43;;;;;;;;;;;25.80;99.90;;;;;;5051320;28;19986;-68
2022/08/18 12:30:11;;;;;;;;;;;26.10;99.90;;;;;;5051227;28;19928;-69
2022/08/18 12:32:38;;;;;;;;;;;26.20;99.90;;;;;;5051625;28;19952;-69
2022/08/18 12:35:06;;;;;;;;;;;26.10;99.90;;;;;;5068219;28;19925;-69
2022/08/18 12:37:35;;;;;;;;;;;26.00;99.90;;;;;;5067886;28;19933;-69
2022/08/18 12:40:01;;;;;;;;;;;25.80;99.90;;;;;;5051362;28;20392;-71
2022/08/18 12:42:28;;;;;;;;;;;25.60;99.90;;;;;;5051228;28;19925;-71
2022/08/18 12:44:55;;;;;;;;;;;25.40;99.90;;;;;;5051227;28;19932;-70
2022/08/18 12:47:23;;;;;;;;;;;25.40;99.90;;;;;;5051310;28;19929;-70
2022/08/18 12:49:50;;;;;;;;;;;25.40;99.90;;;;;;5050907;28;19925;-71
2022/08/18 12:52:18;;;;;;;;;;;25.40;99.90;;;;;;5051095;28;19925;-71
2022/08/18 12:54:46;;;;;;;;;;;25.30;99.90;;;;;;5050983;28;19925;-71
2022/08/18 12:57:17;;;;;;;;;;;25.40;99.90;;;;;;5050741;28;19931;-71
2022/08/18 12:59:45;;;;;;;;;;;25.40;99.90;;;;;;5050367;28;19928;-71
2022/08/18 13:02:11;;;;;;;;;;;25.40;99.90;;;;;;5050617;28;19925;-71
2022/08/18 13:04:38;;;;;;;;;;;25.60;99.90;;;;;;5050595;28;19974;-71
2022/08/18 13:07:06;;;;;;;;;;;25.80;99.90;;;;;;5050532;28;19935;-71
2022/08/18 13:09:34;;;;;;;;;;;26.00;99.90;;;;;;5050340;28;19932;-71
2022/08/18 13:12:03;;;;;;;;;;;26.30;99.90;;;;;;5065917;28;19932;-70
2022/08/18 13:14:29;;;;;;;;;;;26.70;99.90;;;;;;5070545;28;19928;-70
2022/08/18 13:16:56;;;;;;;;;;;26.80;99.90;;;;;;5070545;28;19947;-69
2022/08/18 13:19:23;;;;;;;;;;;27.10;99.90;;;;;;5070062;28;19974;-68
2022/08/18 13:21:50;;;;;;;;;;;27.70;99.90;;;;;;5070259;28;20404;-71
2022/08/18 13:24:17;;;;;;;;;;;28.60;99.90;;;;;;5070133;28;19960;-70
2022/08/18 13:26:45;;;;;;;;;;;29.90;99.90;;;;;;5069569;28;20461;-69
2022/08/18 13:29:14;;;;;;;;;;;31.10;99.90;;;;;;5070016;28;19970;-67
2022/08/18 13:31:40;;;;;;;;;;;32.30;99.90;;;;;;5070169;28;19925;-71
2022/08/18 13:34:07;;;;;;;;;;;33.10;99.90;;;;;;5070048;28;20032;-70
2022/08/18 13:36:44;;;;;;;;;;;33.50;99.90;;;;;;5070228;28;19978;-69
2022/08/18 13:39:11;;;;;;;;;;;32.70;99.90;;;;;;5069707;28;20483;-71
2022/08/18 13:41:37;;;;;;;;;;;32.50;99.90;;;;;;5070201;28;19959;-70
2022/08/18 13:44:04;;;;;;;;;;;32.40;99.90;;;;;;5069620;28;19931;-70
2022/08/18 13:46:32;;;;;;;;;;;31.70;99.90;;;;;;5069782;28;20368;-71
2022/08/18 13:49:01;;;;;;;;;;;31.20;99.90;;;;;;5069956;28;19924;-68
2022/08/18 13:51:28;;;;;;;;;;;30.50;99.90;;;;;;5069935;28;19931;-67
2022/08/18 13:53:54;;;;;;;;;;;29.90;99.90;;;;;;5070011;28;20356;-68
2022/08/18 13:56:21;;;;;;;;;;;29.60;99.90;;;;;;5069921;28;19925;-68
2022/08/18 13:58:48;;;;;;;;;;;29.30;99.90;;;;;;5069197;28;19959;-69
2022/08/18 14:01:15;;;;;;;;;;;28.90;99.90;;;;;;5069790;28;19932;-68
2022/08/18 14:03:43;;;;;;;;;;;28.70;99.90;;;;;;5069614;28;20388;-69
2022/08/18 14:06:10;;;;;;;;;;;28.70;99.90;;;;;;5067691;28;19993;-70
2022/08/18 14:08:37;;;;;;;;;;;28.80;99.90;;;;;;5069001;28;19925;-71
2022/08/18 14:11:04;;;;;;;;;;;28.80;99.90;;;;;;5069177;28;19928;-70
2022/08/18 14:13:31;;;;;;;;;;;28.70;99.90;;;;;;5083143;28;19964;-70
2022/08/18 14:16:00;;;;;;;;;;;29.00;99.90;;;;;;5067415;28;20339;-69
2022/08/18 14:18:28;;;;;;;;;;;29.60;99.90;;;;;;5067762;28;19978;-70
2022/08/18 14:29:05;;;;;;;;;;;32.50;99.90;;;;;;5055664;28;20273;-70
2022/08/18 14:31:32;;;;;;;;;;;32.30;99.90;;;;;;5074503;28;20404;-68
2022/08/18 14:33:59;;;;;;;;;;;32.70;99.90;;;;;;5064131;28;19947;-69
2022/08/18 14:36:27;;;;;;;;;;;32.90;99.90;;;;;;5085110;28;20407;-71
2022/08/18 14:38:54;;;;;;;;;;;33.70;99.90;;;;;;5080932;28;19928;-71
2022/08/18 14:41:21;;;;;;;;;;;33.60;99.90;;;;;;5072989;28;19925;-71
2022/08/18 14:43:47;;;;;;;;;;;32.90;99.90;;;;;;5073088;28;20497;-71
2022/08/18 14:46:14;;;;;;;;;;;33.50;99.90;;;;;;5071713;28;19987;-72
2022/08/18 14:48:41;;;;;;;;;;;33.10;99.90;;;;;;5079534;28;19924;-70
2022/08/18 14:51:08;;;;;;;;;;;32.70;99.90;;;;;;5072227;28;19925;-70
2022/08/18 14:53:36;;;;;;;;;;;32.30;99.90;;;;;;5072746;28;19940;-71